sensor_id;sensor_type;location;lat;lon;timestamp;P1;durP1;ratioP1;P2;durP2;ratioP2
4202;SDS011;2115;51.038;7.006;2022-10-31T00:00:27;20.53;;;7.30;;
4202;SDS011;2115;51.038;7.006;2022-10-31T00:02:53;16.73;;;6.20;;
4202;SDS011;2115;51.038;7.006;2022-10-31T00:05:18;10.50;;;6.00;;
4202;SDS011;2115;51.038;7.006;2022-10-31T00:07:43;12.13;;;6.00;;
4202;SDS011;2115;51.038;7.006;2022-10-31T00:10:09;12.40;;;5.60;;
4202;SDS011;2115;51.038;7.006;2022-10-31T00:12:34;15.77;;;5.33;;
4202;SDS011;2115;51.038;7.006;2022-10-31T00:14:59;17.00;;;6.87;;
4202;SDS011;2115;51.038;7.006;2022-10-31T00:17:25;14.63;;;5.97;;
4202;SDS011;2115;51.038;7.006;2022-10-31T00:19:50;9.13;;;5.90;;
4202;SDS011;2115;51.038;7.006;2022-10-31T00:22:15;12.83;;;6.57;;
4202;SDS011;2115;51.038;7.006;2022-10-31T00:24:41;11.10;;;6.20;;
4202;SDS011;2115;51.038;7.006;2022-10-31T00:27:06;9.07;;;6.03;;
4202;SDS011;2115;51.038;7.006;2022-10-31T00:29:32;12.13;;;5.90;;
4202;SDS011;2115;51.038;7.006;2022-10-31T00:31:57;12.77;;;6.53;;
4202;SDS011;2115;51.038;7.006;2022-10-31T00:34:22;17.10;;;6.03;;
4202;SDS011;2115;51.038;7.006;2022-10-31T00:36:48;16.93;;;6.50;;
4202;SDS011;2115;51.038;7.006;2022-10-31T00:39:13;13.80;;;6.27;;
4202;SDS011;2115;51.038;7.006;2022-10-31T00:41:38;13.40;;;6.10;;
4202;SDS011;2115;51.038;7.006;2022-10-31T00:44:04;12.30;;;6.50;;
4202;SDS011;2115;51.038;7.006;2022-10-31T00:46:29;13.50;;;6.40;;
4202;SDS011;2115;51.038;7.006;2022-10-31T00:48:55;12.43;;;6.43;;
4202;SDS011;2115;51.038;7.006;2022-10-31T00:51:20;18.50;;;6.90;;
4202;SDS011;2115;51.038;7.006;2022-10-31T00:53:45;17.37;;;6.57;;
4202;SDS011;2115;51.038;7.006;2022-10-31T00:56:11;15.67;;;6.20;;
4202;SDS011;2115;51.038;7.006;2022-10-31T00:58:36;21.40;;;6.30;;
4202;SDS011;2115;51.038;7.006;2022-10-31T01:01:02;15.10;;;6.27;;
4202;SDS011;2115;51.038;7.006;2022-10-31T01:03:29;14.13;;;5.80;;
4202;SDS011;2115;51.038;7.006;2022-10-31T01:08:22;19.30;;;6.90;;
4202;SDS011;2115;51.038;7.006;2022-10-31T01:10:57;15.03;;;6.50;;
4202;SDS011;2115;51.038;7.006;2022-10-31T01:13:27;12.40;;;6.20;;
4202;SDS011;2115;51.038;7.006;2022-10-31T01:15:56;15.27;;;7.00;;
4202;SDS011;2115;51.038;7.006;2022-10-31T01:18:22;23.73;;;7.23;;
4202;SDS011;2115;51.038;7.006;2022-10-31T01:20:56;14.10;;;6.17;;
4202;SDS011;2115;51.038;7.006;2022-10-31T01:23:22;16.90;;;6.40;;
4202;SDS011;2115;51.038;7.006;2022-10-31T01:25:47;24.50;;;6.27;;
4202;SDS011;2115;51.038;7.006;2022-10-31T01:28:12;16.87;;;6.00;;
4202;SDS011;2115;51.038;7.006;2022-10-31T01:30:38;14.70;;;6.70;;
4202;SDS011;2115;51.038;7.006;2022-10-31T01:33:03;20.63;;;6.50;;
4202;SDS011;2115;51.038;7.006;2022-10-31T01:35:28;10.03;;;6.20;;
4202;SDS011;2115;51.038;7.006;2022-10-31T01:37:54;17.77;;;5.87;;
4202;SDS011;2115;51.038;7.006;2022-10-31T01:40:19;17.90;;;6.30;;
4202;SDS011;2115;51.038;7.006;2022-10-31T01:42:44;15.83;;;6.20;;
4202;SDS011;2115;51.038;7.006;2022-10-31T01:45:10;14.90;;;6.60;;
4202;SDS011;2115;51.038;7.006;2022-10-31T01:47:45;14.10;;;6.90;;
4202;SDS011;2115;51.038;7.006;2022-10-31T01:50:19;13.90;;;5.87;;
4202;SDS011;2115;51.038;7.006;2022-10-31T01:52:50;23.07;;;6.20;;
4202;SDS011;2115;51.038;7.006;2022-10-31T01:55:18;21.00;;;7.17;;
4202;SDS011;2115;51.038;7.006;2022-10-31T01:57:49;17.83;;;6.37;;
4202;SDS011;2115;51.038;7.006;2022-10-31T02:00:17;11.23;;;5.93;;
4202;SDS011;2115;51.038;7.006;2022-10-31T02:02:44;14.23;;;6.10;;
4202;SDS011;2115;51.038;7.006;2022-10-31T02:05:12;22.43;;;6.73;;
4202;SDS011;2115;51.038;7.006;2022-10-31T02:07:49;17.57;;;6.70;;
4202;SDS011;2115;51.038;7.006;2022-10-31T02:10:16;10.93;;;5.30;;
4202;SDS011;2115;51.038;7.006;2022-10-31T02:12:42;17.33;;;6.20;;
4202;SDS011;2115;51.038;7.006;2022-10-31T02:15:08;10.20;;;6.00;;
4202;SDS011;2115;51.038;7.006;2022-10-31T02:17:34;12.40;;;6.43;;
4202;SDS011;2115;51.038;7.006;2022-10-31T02:23:08;13.83;;;6.20;;
4202;SDS011;2115;51.038;7.006;2022-10-31T02:33:48;13.20;;;6.27;;
4202;SDS011;2115;51.038;7.006;2022-10-31T02:36:20;15.00;;;6.57;;
4202;SDS011;2115;51.038;7.006;2022-10-31T02:47:38;14.23;;;6.60;;
4202;SDS011;2115;51.038;7.006;2022-10-31T02:52:30;17.97;;;7.00;;
4202;SDS011;2115;51.038;7.006;2022-10-31T02:54:56;20.57;;;6.03;;
4202;SDS011;2115;51.038;7.006;2022-10-31T03:00:15;10.90;;;6.70;;
4202;SDS011;2115;51.038;7.006;2022-10-31T03:02:43;17.00;;;6.80;;
4202;SDS011;2115;51.038;7.006;2022-10-31T03:11:01;16.30;;;6.30;;
4202;SDS011;2115;51.038;7.006;2022-10-31T03:16:10;16.50;;;6.67;;
4202;SDS011;2115;51.038;7.006;2022-10-31T03:19:25;19.63;;;7.03;;
4202;SDS011;2115;51.038;7.006;2022-10-31T03:21:34;11.73;;;6.53;;
4202;SDS011;2115;51.038;7.006;2022-10-31T03:24:02;15.87;;;6.97;;
4202;SDS011;2115;51.038;7.006;2022-10-31T03:26:30;18.57;;;7.10;;
4202;SDS011;2115;51.038;7.006;2022-10-31T03:28:59;17.30;;;7.50;;
4202;SDS011;2115;51.038;7.006;2022-10-31T03:31:37;14.50;;;6.63;;
4202;SDS011;2115;51.038;7.006;2022-10-31T03:34:06;11.40;;;6.80;;
4202;SDS011;2115;51.038;7.006;2022-10-31T03:36:33;16.37;;;6.90;;
4202;SDS011;2115;51.038;7.006;2022-10-31T03:38:59;11.07;;;6.23;;
4202;SDS011;2115;51.038;7.006;2022-10-31T03:41:27;14.20;;;6.67;;
4202;SDS011;2115;51.038;7.006;2022-10-31T03:43:55;12.07;;;6.60;;
4202;SDS011;2115;51.038;7.006;2022-10-31T03:46:23;19.47;;;7.13;;
4202;SDS011;2115;51.038;7.006;2022-10-31T03:48:49;17.13;;;7.60;;
4202;SDS011;2115;51.038;7.006;2022-10-31T03:51:15;13.73;;;6.80;;
4202;SDS011;2115;51.038;7.006;2022-10-31T03:56:18;25.53;;;7.20;;
4202;SDS011;2115;51.038;7.006;2022-10-31T03:58:48;15.30;;;6.57;;
4202;SDS011;2115;51.038;7.006;2022-10-31T04:01:25;13.37;;;6.90;;
4202;SDS011;2115;51.038;7.006;2022-10-31T04:03:52;21.37;;;7.20;;
4202;SDS011;2115;51.038;7.006;2022-10-31T04:06:18;15.40;;;6.50;;
4202;SDS011;2115;51.038;7.006;2022-10-31T04:08:45;18.47;;;7.47;;
4202;SDS011;2115;51.038;7.006;2022-10-31T04:11:14;16.10;;;6.50;;
4202;SDS011;2115;51.038;7.006;2022-10-31T04:13:50;19.23;;;6.83;;
4202;SDS011;2115;51.038;7.006;2022-10-31T04:16:17;18.53;;;7.10;;
4202;SDS011;2115;51.038;7.006;2022-10-31T04:18:42;23.43;;;6.90;;
4202;SDS011;2115;51.038;7.006;2022-10-31T04:21:08;17.60;;;7.23;;
4202;SDS011;2115;51.038;7.006;2022-10-31T04:23:34;16.07;;;7.47;;
4202;SDS011;2115;51.038;7.006;2022-10-31T04:26:00;13.03;;;6.30;;
4202;SDS011;2115;51.038;7.006;2022-10-31T04:28:26;11.87;;;6.60;;
4202;SDS011;2115;51.038;7.006;2022-10-31T04:30:52;16.20;;;6.33;;
4202;SDS011;2115;51.038;7.006;2022-10-31T04:33:17;18.93;;;7.40;;
4202;SDS011;2115;51.038;7.006;2022-10-31T04:35:43;16.50;;;7.47;;
4202;SDS011;2115;51.038;7.006;2022-10-31T04:38:08;15.77;;;7.67;;
4202;SDS011;2115;51.038;7.006;2022-10-31T04:40:34;12.63;;;6.80;;
4202;SDS011;2115;51.038;7.006;2022-10-31T04:42:59;19.90;;;6.17;;
4202;SDS011;2115;51.038;7.006;2022-10-31T04:45:24;22.83;;;6.67;;
4202;SDS011;2115;51.038;7.006;2022-10-31T04:47:50;20.60;;;6.77;;
4202;SDS011;2115;51.038;7.006;2022-10-31T04:50:15;13.70;;;6.57;;
4202;SDS011;2115;51.038;7.006;2022-10-31T04:52:43;18.93;;;7.40;;
4202;SDS011;2115;51.038;7.006;2022-10-31T04:55:09;13.80;;;6.70;;
4202;SDS011;2115;51.038;7.006;2022-10-31T04:57:41;12.23;;;6.27;;
4202;SDS011;2115;51.038;7.006;2022-10-31T05:00:11;19.43;;;8.87;;
4202;SDS011;2115;51.038;7.006;2022-10-31T05:02:44;16.03;;;8.20;;
4202;SDS011;2115;51.038;7.006;2022-10-31T05:05:11;16.43;;;6.77;;
4202;SDS011;2115;51.038;7.006;2022-10-31T05:07:40;21.83;;;7.10;;
4202;SDS011;2115;51.038;7.006;2022-10-31T05:10:07;11.57;;;6.73;;
4202;SDS011;2115;51.038;7.006;2022-10-31T05:12:34;16.47;;;6.57;;
4202;SDS011;2115;51.038;7.006;2022-10-31T05:15:00;23.63;;;7.60;;
4202;SDS011;2115;51.038;7.006;2022-10-31T05:17:25;18.10;;;8.07;;
4202;SDS011;2115;51.038;7.006;2022-10-31T05:19:51;26.77;;;7.10;;
4202;SDS011;2115;51.038;7.006;2022-10-31T05:22:16;20.10;;;7.10;;
4202;SDS011;2115;51.038;7.006;2022-10-31T05:24:41;20.57;;;7.60;;
4202;SDS011;2115;51.038;7.006;2022-10-31T05:27:07;13.83;;;7.33;;
4202;SDS011;2115;51.038;7.006;2022-10-31T05:29:32;13.07;;;7.63;;
4202;SDS011;2115;51.038;7.006;2022-10-31T05:31:58;15.77;;;7.77;;
4202;SDS011;2115;51.038;7.006;2022-10-31T05:34:24;19.57;;;7.13;;
4202;SDS011;2115;51.038;7.006;2022-10-31T05:36:49;16.40;;;7.50;;
4202;SDS011;2115;51.038;7.006;2022-10-31T05:39:14;23.60;;;7.90;;
4202;SDS011;2115;51.038;7.006;2022-10-31T05:41:40;29.70;;;8.67;;
4202;SDS011;2115;51.038;7.006;2022-10-31T05:44:05;16.87;;;7.00;;
4202;SDS011;2115;51.038;7.006;2022-10-31T05:46:31;15.80;;;6.70;;
4202;SDS011;2115;51.038;7.006;2022-10-31T05:48:56;13.60;;;7.37;;
4202;SDS011;2115;51.038;7.006;2022-10-31T05:51:21;17.37;;;7.97;;
4202;SDS011;2115;51.038;7.006;2022-10-31T05:53:47;18.60;;;7.80;;
4202;SDS011;2115;51.038;7.006;2022-10-31T05:56:12;15.10;;;8.70;;
4202;SDS011;2115;51.038;7.006;2022-10-31T05:58:38;19.17;;;8.00;;
4202;SDS011;2115;51.038;7.006;2022-10-31T06:01:03;14.63;;;8.20;;
4202;SDS011;2115;51.038;7.006;2022-10-31T06:03:28;17.03;;;7.77;;
4202;SDS011;2115;51.038;7.006;2022-10-31T06:05:54;34.60;;;9.33;;
4202;SDS011;2115;51.038;7.006;2022-10-31T06:08:19;18.07;;;7.50;;
4202;SDS011;2115;51.038;7.006;2022-10-31T06:10:45;17.60;;;8.70;;
4202;SDS011;2115;51.038;7.006;2022-10-31T06:13:10;16.67;;;7.53;;
4202;SDS011;2115;51.038;7.006;2022-10-31T06:15:35;12.80;;;7.60;;
4202;SDS011;2115;51.038;7.006;2022-10-31T06:18:01;18.10;;;7.90;;
4202;SDS011;2115;51.038;7.006;2022-10-31T06:20:30;25.40;;;8.23;;
4202;SDS011;2115;51.038;7.006;2022-10-31T06:22:56;15.80;;;8.20;;
4202;SDS011;2115;51.038;7.006;2022-10-31T06:25:21;20.90;;;8.40;;
4202;SDS011;2115;51.038;7.006;2022-10-31T06:27:47;18.47;;;9.40;;
4202;SDS011;2115;51.038;7.006;2022-10-31T06:30:12;20.37;;;9.10;;
4202;SDS011;2115;51.038;7.006;2022-10-31T06:32:37;20.40;;;9.27;;
4202;SDS011;2115;51.038;7.006;2022-10-31T06:35:03;17.60;;;8.30;;
4202;SDS011;2115;51.038;7.006;2022-10-31T06:37:29;20.20;;;9.23;;
4202;SDS011;2115;51.038;7.006;2022-10-31T06:39:54;19.80;;;9.23;;
4202;SDS011;2115;51.038;7.006;2022-10-31T06:42:19;19.53;;;8.40;;
4202;SDS011;2115;51.038;7.006;2022-10-31T06:44:45;15.57;;;7.60;;
4202;SDS011;2115;51.038;7.006;2022-10-31T06:47:10;14.17;;;8.40;;
4202;SDS011;2115;51.038;7.006;2022-10-31T06:49:35;16.00;;;8.63;;
4202;SDS011;2115;51.038;7.006;2022-10-31T06:52:01;20.93;;;9.00;;
4202;SDS011;2115;51.038;7.006;2022-10-31T06:54:26;21.80;;;8.90;;
4202;SDS011;2115;51.038;7.006;2022-10-31T06:56:52;18.73;;;8.67;;
4202;SDS011;2115;51.038;7.006;2022-10-31T06:59:17;15.87;;;9.30;;
4202;SDS011;2115;51.038;7.006;2022-10-31T07:01:42;21.57;;;9.93;;
4202;SDS011;2115;51.038;7.006;2022-10-31T07:04:11;22.57;;;8.80;;
4202;SDS011;2115;51.038;7.006;2022-10-31T07:06:36;17.40;;;7.80;;
4202;SDS011;2115;51.038;7.006;2022-10-31T07:09:02;16.43;;;9.00;;
4202;SDS011;2115;51.038;7.006;2022-10-31T07:11:27;18.97;;;9.67;;
4202;SDS011;2115;51.038;7.006;2022-10-31T07:13:53;23.47;;;9.07;;
4202;SDS011;2115;51.038;7.006;2022-10-31T07:16:18;19.40;;;9.67;;
4202;SDS011;2115;51.038;7.006;2022-10-31T07:18:43;19.87;;;8.67;;
4202;SDS011;2115;51.038;7.006;2022-10-31T07:21:09;27.30;;;10.20;;
4202;SDS011;2115;51.038;7.006;2022-10-31T07:23:34;16.43;;;9.13;;
4202;SDS011;2115;51.038;7.006;2022-10-31T07:25:59;22.80;;;9.07;;
4202;SDS011;2115;51.038;7.006;2022-10-31T07:28:25;22.20;;;8.90;;
4202;SDS011;2115;51.038;7.006;2022-10-31T07:30:51;19.37;;;9.57;;
4202;SDS011;2115;51.038;7.006;2022-10-31T07:33:17;18.23;;;9.70;;
4202;SDS011;2115;51.038;7.006;2022-10-31T07:35:43;34.00;;;8.77;;
4202;SDS011;2115;51.038;7.006;2022-10-31T07:38:09;23.93;;;9.97;;
4202;SDS011;2115;51.038;7.006;2022-10-31T07:40:35;21.70;;;9.90;;
4202;SDS011;2115;51.038;7.006;2022-10-31T07:43:01;22.43;;;10.47;;
4202;SDS011;2115;51.038;7.006;2022-10-31T07:45:26;18.43;;;9.13;;
4202;SDS011;2115;51.038;7.006;2022-10-31T07:47:52;19.40;;;9.47;;
4202;SDS011;2115;51.038;7.006;2022-10-31T07:50:19;17.00;;;9.13;;
4202;SDS011;2115;51.038;7.006;2022-10-31T07:52:46;14.23;;;8.67;;
4202;SDS011;2115;51.038;7.006;2022-10-31T07:55:11;16.17;;;8.43;;
4202;SDS011;2115;51.038;7.006;2022-10-31T07:57:37;18.00;;;8.90;;
4202;SDS011;2115;51.038;7.006;2022-10-31T08:00:06;24.30;;;9.00;;
4202;SDS011;2115;51.038;7.006;2022-10-31T08:02:33;24.77;;;9.40;;
4202;SDS011;2115;51.038;7.006;2022-10-31T08:04:58;21.73;;;8.90;;
4202;SDS011;2115;51.038;7.006;2022-10-31T08:07:25;18.77;;;9.33;;
4202;SDS011;2115;51.038;7.006;2022-10-31T08:09:50;22.40;;;9.67;;
4202;SDS011;2115;51.038;7.006;2022-10-31T08:12:16;14.90;;;8.37;;
4202;SDS011;2115;51.038;7.006;2022-10-31T08:14:41;19.30;;;8.60;;
4202;SDS011;2115;51.038;7.006;2022-10-31T08:17:07;22.23;;;8.97;;
4202;SDS011;2115;51.038;7.006;2022-10-31T08:19:32;22.30;;;9.77;;
4202;SDS011;2115;51.038;7.006;2022-10-31T08:21:58;23.90;;;9.20;;
4202;SDS011;2115;51.038;7.006;2022-10-31T08:24:23;21.20;;;8.63;;
4202;SDS011;2115;51.038;7.006;2022-10-31T08:26:49;17.20;;;8.70;;
4202;SDS011;2115;51.038;7.006;2022-10-31T08:29:14;21.67;;;10.17;;
4202;SDS011;2115;51.038;7.006;2022-10-31T08:31:41;25.33;;;8.80;;
4202;SDS011;2115;51.038;7.006;2022-10-31T08:34:07;22.57;;;9.73;;
4202;SDS011;2115;51.038;7.006;2022-10-31T08:36:32;21.67;;;9.20;;
4202;SDS011;2115;51.038;7.006;2022-10-31T08:38:58;18.43;;;7.90;;
4202;SDS011;2115;51.038;7.006;2022-10-31T08:41:23;21.87;;;8.60;;
4202;SDS011;2115;51.038;7.006;2022-10-31T08:43:48;19.47;;;8.00;;
4202;SDS011;2115;51.038;7.006;2022-10-31T08:46:14;17.50;;;9.53;;
4202;SDS011;2115;51.038;7.006;2022-10-31T08:48:39;15.27;;;8.63;;
4202;SDS011;2115;51.038;7.006;2022-10-31T08:51:05;17.67;;;8.60;;
4202;SDS011;2115;51.038;7.006;2022-10-31T08:53:31;21.13;;;8.50;;
4202;SDS011;2115;51.038;7.006;2022-10-31T08:55:56;26.03;;;9.00;;
4202;SDS011;2115;51.038;7.006;2022-10-31T08:58:22;21.83;;;8.90;;
4202;SDS011;2115;51.038;7.006;2022-10-31T09:00:49;21.90;;;8.00;;
4202;SDS011;2115;51.038;7.006;2022-10-31T09:03:17;29.17;;;10.17;;
4202;SDS011;2115;51.038;7.006;2022-10-31T09:05:46;16.20;;;8.87;;
4202;SDS011;2115;51.038;7.006;2022-10-31T09:08:12;22.93;;;9.70;;
4202;SDS011;2115;51.038;7.006;2022-10-31T09:10:38;19.77;;;9.03;;
4202;SDS011;2115;51.038;7.006;2022-10-31T09:13:05;22.00;;;8.23;;
4202;SDS011;2115;51.038;7.006;2022-10-31T09:15:34;22.23;;;7.87;;
4202;SDS011;2115;51.038;7.006;2022-10-31T09:18:00;23.50;;;9.83;;
4202;SDS011;2115;51.038;7.006;2022-10-31T09:20:26;22.23;;;10.00;;
4202;SDS011;2115;51.038;7.006;2022-10-31T09:22:56;16.00;;;9.20;;
4202;SDS011;2115;51.038;7.006;2022-10-31T09:25:26;24.03;;;8.83;;
4202;SDS011;2115;51.038;7.006;2022-10-31T09:27:55;24.03;;;9.57;;
4202;SDS011;2115;51.038;7.006;2022-10-31T09:30:24;16.97;;;8.70;;
4202;SDS011;2115;51.038;7.006;2022-10-31T09:32:57;20.13;;;9.57;;
4202;SDS011;2115;51.038;7.006;2022-10-31T09:35:23;24.67;;;8.60;;
4202;SDS011;2115;51.038;7.006;2022-10-31T09:38:05;20.37;;;8.90;;
4202;SDS011;2115;51.038;7.006;2022-10-31T09:40:43;16.57;;;8.10;;
4202;SDS011;2115;51.038;7.006;2022-10-31T09:50:59;24.57;;;8.97;;
4202;SDS011;2115;51.038;7.006;2022-10-31T09:56:17;21.63;;;9.30;;
4202;SDS011;2115;51.038;7.006;2022-10-31T09:58:50;14.70;;;7.93;;
4202;SDS011;2115;51.038;7.006;2022-10-31T10:06:54;25.67;;;8.30;;
4202;SDS011;2115;51.038;7.006;2022-10-31T10:09:20;10.50;;;7.03;;
4202;SDS011;2115;51.038;7.006;2022-10-31T10:11:55;19.03;;;7.93;;
4202;SDS011;2115;51.038;7.006;2022-10-31T10:19:54;20.30;;;8.00;;
4202;SDS011;2115;51.038;7.006;2022-10-31T10:22:42;17.57;;;7.20;;
4202;SDS011;2115;51.038;7.006;2022-10-31T10:25:15;21.97;;;7.93;;
4202;SDS011;2115;51.038;7.006;2022-10-31T10:30:43;13.43;;;7.03;;
4202;SDS011;2115;51.038;7.006;2022-10-31T10:33:10;26.57;;;8.00;;
4202;SDS011;2115;51.038;7.006;2022-10-31T10:35:57;17.30;;;6.43;;
4202;SDS011;2115;51.038;7.006;2022-10-31T10:41:05;16.33;;;6.27;;
4202;SDS011;2115;51.038;7.006;2022-10-31T10:43:36;14.57;;;6.30;;
4202;SDS011;2115;51.038;7.006;2022-10-31T10:46:12;16.83;;;6.77;;
4202;SDS011;2115;51.038;7.006;2022-10-31T10:51:38;18.93;;;6.30;;
4202;SDS011;2115;51.038;7.006;2022-10-31T10:59:53;12.07;;;5.40;;
4202;SDS011;2115;51.038;7.006;2022-10-31T11:02:23;17.67;;;6.17;;
4202;SDS011;2115;51.038;7.006;2022-10-31T11:04:54;12.03;;;5.53;;
4202;SDS011;2115;51.038;7.006;2022-10-31T11:07:21;13.57;;;5.27;;
4202;SDS011;2115;51.038;7.006;2022-10-31T11:09:46;12.83;;;5.63;;
4202;SDS011;2115;51.038;7.006;2022-10-31T11:14:51;16.83;;;5.67;;
4202;SDS011;2115;51.038;7.006;2022-10-31T11:17:41;12.97;;;5.63;;
4202;SDS011;2115;51.038;7.006;2022-10-31T11:22:37;13.77;;;6.27;;
4202;SDS011;2115;51.038;7.006;2022-10-31T11:27:58;23.40;;;5.10;;
4202;SDS011;2115;51.038;7.006;2022-10-31T11:30:42;15.43;;;4.77;;
4202;SDS011;2115;51.038;7.006;2022-10-31T11:33:19;26.77;;;6.27;;
4202;SDS011;2115;51.038;7.006;2022-10-31T11:35:49;15.50;;;4.90;;
4202;SDS011;2115;51.038;7.006;2022-10-31T11:38:16;22.47;;;4.90;;
4202;SDS011;2115;51.038;7.006;2022-10-31T11:40:51;19.00;;;5.80;;
4202;SDS011;2115;51.038;7.006;2022-10-31T11:43:17;11.00;;;5.20;;
4202;SDS011;2115;51.038;7.006;2022-10-31T11:48:25;21.20;;;5.67;;
4202;SDS011;2115;51.038;7.006;2022-10-31T11:50:55;24.83;;;5.03;;
4202;SDS011;2115;51.038;7.006;2022-10-31T11:53:26;10.23;;;5.53;;
4202;SDS011;2115;51.038;7.006;2022-10-31T11:56:00;15.13;;;5.93;;
4202;SDS011;2115;51.038;7.006;2022-10-31T11:58:29;12.07;;;5.17;;
4202;SDS011;2115;51.038;7.006;2022-10-31T12:00:55;7.20;;;4.53;;
4202;SDS011;2115;51.038;7.006;2022-10-31T12:05:47;19.03;;;5.40;;
4202;SDS011;2115;51.038;7.006;2022-10-31T12:08:17;15.37;;;5.07;;
4202;SDS011;2115;51.038;7.006;2022-10-31T12:13:34;9.00;;;4.97;;
4202;SDS011;2115;51.038;7.006;2022-10-31T12:22:08;12.70;;;4.50;;
4202;SDS011;2115;51.038;7.006;2022-10-31T12:29:52;10.00;;;4.07;;
4202;SDS011;2115;51.038;7.006;2022-10-31T12:33:01;17.17;;;4.60;;
4202;SDS011;2115;51.038;7.006;2022-10-31T12:46:02;11.17;;;4.37;;
4202;SDS011;2115;51.038;7.006;2022-10-31T12:54:10;15.53;;;4.53;;
4202;SDS011;2115;51.038;7.006;2022-10-31T12:57:27;12.37;;;4.90;;
4202;SDS011;2115;51.038;7.006;2022-10-31T13:00:04;10.63;;;3.67;;
4202;SDS011;2115;51.038;7.006;2022-10-31T13:02:42;17.73;;;4.47;;
4202;SDS011;2115;51.038;7.006;2022-10-31T13:05:17;16.27;;;4.70;;
4202;SDS011;2115;51.038;7.006;2022-10-31T13:13:15;12.77;;;4.10;;
4202;SDS011;2115;51.038;7.006;2022-10-31T13:15:48;20.10;;;4.70;;
4202;SDS011;2115;51.038;7.006;2022-10-31T13:18:26;13.97;;;4.63;;
4202;SDS011;2115;51.038;7.006;2022-10-31T13:20:55;7.80;;;3.77;;
4202;SDS011;2115;51.038;7.006;2022-10-31T13:23:30;9.80;;;4.83;;
4202;SDS011;2115;51.038;7.006;2022-10-31T13:25:58;9.50;;;4.57;;
4202;SDS011;2115;51.038;7.006;2022-10-31T13:31:17;8.03;;;4.60;;
4202;SDS011;2115;51.038;7.006;2022-10-31T13:33:47;12.70;;;4.50;;
4202;SDS011;2115;51.038;7.006;2022-10-31T13:36:26;12.13;;;4.50;;
4202;SDS011;2115;51.038;7.006;2022-10-31T13:39:01;20.80;;;4.30;;
4202;SDS011;2115;51.038;7.006;2022-10-31T13:44:34;12.23;;;4.17;;
4202;SDS011;2115;51.038;7.006;2022-10-31T13:47:02;12.40;;;4.33;;
4202;SDS011;2115;51.038;7.006;2022-10-31T13:52:05;12.70;;;4.00;;
4202;SDS011;2115;51.038;7.006;2022-10-31T13:54:37;22.77;;;4.53;;
4202;SDS011;2115;51.038;7.006;2022-10-31T13:57:27;14.17;;;3.73;;
4202;SDS011;2115;51.038;7.006;2022-10-31T13:59:56;12.03;;;4.37;;
4202;SDS011;2115;51.038;7.006;2022-10-31T14:02:25;18.60;;;4.27;;
4202;SDS011;2115;51.038;7.006;2022-10-31T14:05:02;13.43;;;4.30;;
4202;SDS011;2115;51.038;7.006;2022-10-31T14:07:30;13.13;;;4.80;;
4202;SDS011;2115;51.038;7.006;2022-10-31T14:10:06;23.20;;;4.57;;
4202;SDS011;2115;51.038;7.006;2022-10-31T14:12:46;10.27;;;4.30;;
4202;SDS011;2115;51.038;7.006;2022-10-31T14:15:19;15.37;;;4.50;;
4202;SDS011;2115;51.038;7.006;2022-10-31T14:17:48;10.70;;;4.00;;
4202;SDS011;2115;51.038;7.006;2022-10-31T14:22:40;8.70;;;3.40;;
4202;SDS011;2115;51.038;7.006;2022-10-31T14:27:52;26.30;;;4.90;;
4202;SDS011;2115;51.038;7.006;2022-10-31T14:30:21;13.70;;;4.30;;
4202;SDS011;2115;51.038;7.006;2022-10-31T14:32:50;23.30;;;4.90;;
4202;SDS011;2115;51.038;7.006;2022-10-31T14:35:17;11.53;;;4.30;;
4202;SDS011;2115;51.038;7.006;2022-10-31T14:51:18;21.73;;;3.77;;
4202;SDS011;2115;51.038;7.006;2022-10-31T14:53:47;9.93;;;3.87;;
4202;SDS011;2115;51.038;7.006;2022-10-31T14:56:17;15.50;;;4.30;;
4202;SDS011;2115;51.038;7.006;2022-10-31T14:58:48;19.17;;;4.13;;
4202;SDS011;2115;51.038;7.006;2022-10-31T15:01:19;10.53;;;4.10;;
4202;SDS011;2115;51.038;7.006;2022-10-31T15:03:48;15.87;;;4.60;;
4202;SDS011;2115;51.038;7.006;2022-10-31T15:06:14;13.50;;;4.60;;
4202;SDS011;2115;51.038;7.006;2022-10-31T15:08:45;11.70;;;4.97;;
4202;SDS011;2115;51.038;7.006;2022-10-31T15:13:47;13.40;;;4.33;;
4202;SDS011;2115;51.038;7.006;2022-10-31T15:16:14;23.30;;;4.90;;
4202;SDS011;2115;51.038;7.006;2022-10-31T15:18:51;10.83;;;3.80;;
4202;SDS011;2115;51.038;7.006;2022-10-31T15:21:28;14.87;;;3.73;;
4202;SDS011;2115;51.038;7.006;2022-10-31T15:23:55;17.63;;;4.33;;
4202;SDS011;2115;51.038;7.006;2022-10-31T15:26:23;17.43;;;4.53;;
4202;SDS011;2115;51.038;7.006;2022-10-31T15:28:57;14.27;;;4.90;;
4202;SDS011;2115;51.038;7.006;2022-10-31T15:31:27;14.50;;;4.40;;
4202;SDS011;2115;51.038;7.006;2022-10-31T15:33:53;8.90;;;4.20;;
4202;SDS011;2115;51.038;7.006;2022-10-31T15:36:23;15.83;;;4.10;;
4202;SDS011;2115;51.038;7.006;2022-10-31T15:38:49;16.77;;;3.70;;
4202;SDS011;2115;51.038;7.006;2022-10-31T15:41:20;9.13;;;3.80;;
4202;SDS011;2115;51.038;7.006;2022-10-31T15:43:49;13.60;;;3.83;;
4202;SDS011;2115;51.038;7.006;2022-10-31T15:46:15;19.33;;;3.80;;
4202;SDS011;2115;51.038;7.006;2022-10-31T15:48:43;13.03;;;3.97;;
4202;SDS011;2115;51.038;7.006;2022-10-31T15:51:10;7.50;;;3.30;;
4202;SDS011;2115;51.038;7.006;2022-10-31T15:53:36;16.13;;;3.60;;
4202;SDS011;2115;51.038;7.006;2022-10-31T15:56:08;7.40;;;3.33;;
4202;SDS011;2115;51.038;7.006;2022-10-31T15:58:43;17.40;;;4.63;;
4202;SDS011;2115;51.038;7.006;2022-10-31T16:04:05;17.03;;;3.30;;
4202;SDS011;2115;51.038;7.006;2022-10-31T16:06:43;11.50;;;3.80;;
4202;SDS011;2115;51.038;7.006;2022-10-31T16:09:20;8.13;;;3.77;;
4202;SDS011;2115;51.038;7.006;2022-10-31T16:11:47;7.10;;;3.30;;
4202;SDS011;2115;51.038;7.006;2022-10-31T16:16:43;11.53;;;3.90;;
4202;SDS011;2115;51.038;7.006;2022-10-31T16:19:15;19.97;;;4.57;;
4202;SDS011;2115;51.038;7.006;2022-10-31T16:21:46;12.53;;;3.30;;
4202;SDS011;2115;51.038;7.006;2022-10-31T16:24:49;17.80;;;4.30;;
4202;SDS011;2115;51.038;7.006;2022-10-31T16:29:46;12.97;;;4.57;;
4202;SDS011;2115;51.038;7.006;2022-10-31T16:37:27;19.67;;;4.83;;
4202;SDS011;2115;51.038;7.006;2022-10-31T16:39:52;8.87;;;3.80;;
4202;SDS011;2115;51.038;7.006;2022-10-31T16:42:17;19.23;;;5.53;;
4202;SDS011;2115;51.038;7.006;2022-10-31T16:44:43;13.13;;;4.93;;
4202;SDS011;2115;51.038;7.006;2022-10-31T16:47:11;16.53;;;5.50;;
4202;SDS011;2115;51.038;7.006;2022-10-31T16:49:39;16.70;;;5.17;;
4202;SDS011;2115;51.038;7.006;2022-10-31T16:52:04;9.93;;;3.97;;
4202;SDS011;2115;51.038;7.006;2022-10-31T16:54:30;17.40;;;4.03;;
4202;SDS011;2115;51.038;7.006;2022-10-31T16:56:55;11.30;;;4.20;;
4202;SDS011;2115;51.038;7.006;2022-10-31T16:59:23;11.03;;;4.10;;
4202;SDS011;2115;51.038;7.006;2022-10-31T17:01:48;14.73;;;4.23;;
4202;SDS011;2115;51.038;7.006;2022-10-31T17:04:14;11.83;;;3.63;;
4202;SDS011;2115;51.038;7.006;2022-10-31T17:06:39;14.13;;;4.20;;
4202;SDS011;2115;51.038;7.006;2022-10-31T17:09:05;13.07;;;3.47;;
4202;SDS011;2115;51.038;7.006;2022-10-31T17:11:31;14.90;;;5.47;;
4202;SDS011;2115;51.038;7.006;2022-10-31T17:13:56;15.67;;;3.83;;
4202;SDS011;2115;51.038;7.006;2022-10-31T17:16:22;14.43;;;4.00;;
4202;SDS011;2115;51.038;7.006;2022-10-31T17:18:48;11.63;;;3.33;;
4202;SDS011;2115;51.038;7.006;2022-10-31T17:21:16;13.77;;;4.37;;
4202;SDS011;2115;51.038;7.006;2022-10-31T17:23:48;25.23;;;5.90;;
4202;SDS011;2115;51.038;7.006;2022-10-31T17:26:14;14.17;;;4.27;;
4202;SDS011;2115;51.038;7.006;2022-10-31T17:28:40;10.97;;;4.20;;
4202;SDS011;2115;51.038;7.006;2022-10-31T17:31:05;15.27;;;4.30;;
4202;SDS011;2115;51.038;7.006;2022-10-31T17:33:31;11.93;;;3.60;;
4202;SDS011;2115;51.038;7.006;2022-10-31T17:35:56;17.77;;;3.63;;
4202;SDS011;2115;51.038;7.006;2022-10-31T17:38:21;12.80;;;4.00;;
4202;SDS011;2115;51.038;7.006;2022-10-31T17:40:47;16.77;;;3.83;;
4202;SDS011;2115;51.038;7.006;2022-10-31T17:43:12;12.17;;;3.70;;
4202;SDS011;2115;51.038;7.006;2022-10-31T17:45:38;17.93;;;3.80;;
4202;SDS011;2115;51.038;7.006;2022-10-31T17:48:04;8.60;;;3.80;;
4202;SDS011;2115;51.038;7.006;2022-10-31T17:50:30;18.40;;;4.37;;
4202;SDS011;2115;51.038;7.006;2022-10-31T17:52:56;10.00;;;4.47;;
4202;SDS011;2115;51.038;7.006;2022-10-31T17:55:22;16.83;;;4.60;;